Time;durP1;ratioP1;P1;durP2;ratioP2;P2;SDS_P1;SDS_P2;PMS_P1;PMS_P2;Temp;Humidity;BMP_temperature;BMP_pressure;BME280_temperature;BME280_humidity;BME280_pressure;Samples;Min_cycle;Max_cycle;Signal;HPM_P1;HPM_P2
2022/10/10 00:01:09;;;;;;;;;10.25;10.25;26.70;99.90;;;;;;5017570;28;8828;-74
2022/10/10 00:03:41;;;;;;;;;11.25;11.25;26.70;99.90;;;;;;4987611;28;8864;-73
2022/10/10 00:06:14;;;;;;;;;14.25;13.50;26.70;99.90;;;;;;4999514;28;8848;-73
2022/10/10 00:08:49;;;;;;;;;15.25;15.25;26.70;99.90;;;;;;4989165;28;8811;-75
2022/10/10 00:11:23;;;;;;;;;13.25;13.25;26.70;99.90;;;;;;5001586;28;8821;-75
2022/10/10 00:13:56;;;;;;;;;12.00;12.00;26.60;99.90;;;;;;5005111;28;8824;-76
2022/10/10 00:16:32;;;;;;;;;12.00;12.00;26.60;99.90;;;;;;5026729;28;8831;-76
2022/10/10 00:19:09;;;;;;;;;12.25;12.25;26.60;99.90;;;;;;5002519;28;8860;-76
2022/10/10 00:21:45;;;;;;;;;12.25;12.25;26.50;99.90;;;;;;4990911;28;8837;-75
2022/10/10 00:27:26;;;;;;;;;9.50;9.50;26.50;99.90;;;;;;5003193;28;8845;-74
2022/10/10 00:30:11;;;;;;;;;11.75;11.75;26.30;99.90;;;;;;4997912;28;8844;-72
2022/10/10 00:32:49;;;;;;;;;12.00;12.00;26.30;99.90;;;;;;4994400;28;8855;-73
2022/10/10 00:35:21;;;;;;;;;12.50;12.50;26.30;99.90;;;;;;4988108;28;8870;-73
2022/10/10 00:37:55;;;;;;;;;13.00;13.00;26.20;99.90;;;;;;4997559;28;8910;-72
2022/10/10 00:40:34;;;;;;;;;11.25;11.25;26.20;99.90;;;;;;4964948;28;8844;-74
2022/10/10 00:43:13;;;;;;;;;13.75;13.75;26.20;99.90;;;;;;4965810;28;8862;-76
2022/10/10 00:45:47;;;;;;;;;13.50;13.50;26.10;99.90;;;;;;4998289;28;8881;-74
2022/10/10 00:48:40;;;;;;;;;12.25;12.25;26.00;99.90;;;;;;4987943;28;8882;-73
2022/10/10 00:54:57;;;;;;;;;12.25;12.25;26.00;99.90;;;;;;4988795;28;8808;-75
2022/10/10 00:57:42;;;;;;;;;12.00;12.00;26.00;99.90;;;;;;4946072;28;8874;-73
2022/10/10 01:00:13;;;;;;;;;12.00;12.00;26.00;99.90;;;;;;4980869;28;8842;-74
2022/10/10 01:02:45;;;;;;;;;12.00;12.00;25.90;99.90;;;;;;4989592;28;8873;-74
2022/10/10 01:05:17;;;;;;;;;11.25;11.00;25.90;99.90;;;;;;4983604;28;8855;-74
2022/10/10 01:07:48;;;;;;;;;13.25;13.25;25.80;99.90;;;;;;4969481;28;8841;-73
2022/10/10 01:10:24;;;;;;;;;11.25;11.25;25.70;99.90;;;;;;4981020;28;8844;-74
2022/10/10 01:13:27;;;;;;;;;10.00;9.00;25.70;99.90;;;;;;4991783;28;8831;-74
2022/10/10 01:16:17;;;;;;;;;12.00;12.00;25.70;99.90;;;;;;4955006;28;8837;-75
2022/10/10 01:20:07;;;;;;;;;12.75;12.75;25.70;99.90;;;;;;4980729;28;8844;-76
2022/10/10 01:23:18;;;;;;;;;12.50;12.50;25.60;99.90;;;;;;4908198;28;9052;-75
2022/10/10 01:26:48;;;;;;;;;13.00;13.00;25.60;99.90;;;;;;4988578;28;8874;-76
2022/10/10 01:29:34;;;;;;;;;12.00;12.00;25.50;99.90;;;;;;4956631;28;8856;-75
2022/10/10 01:32:36;;;;;;;;;13.25;13.25;25.50;99.90;;;;;;4965521;28;8866;-75
2022/10/10 01:35:31;;;;;;;;;13.00;12.25;25.40;99.90;;;;;;4975662;28;8887;-75
2022/10/10 01:38:16;;;;;;;;;11.25;11.25;25.40;99.90;;;;;;4965054;28;8874;-74
2022/10/10 01:41:22;;;;;;;;;12.25;12.25;25.30;99.90;;;;;;4977187;28;8820;-73
2022/10/10 01:44:01;;;;;;;;;11.25;11.25;25.40;99.90;;;;;;4983414;28;9018;-74
2022/10/10 01:46:39;;;;;;;;;12.75;11.25;25.30;99.90;;;;;;4986541;28;8867;-74
2022/10/10 01:50:04;;;;;;;;;11.00;11.00;25.30;99.90;;;;;;4976906;28;8850;-73
2022/10/10 01:52:46;;;;;;;;;11.25;11.25;25.30;99.90;;;;;;4974988;28;8848;-75
2022/10/10 01:55:47;;;;;;;;;10.50;10.50;25.20;99.90;;;;;;4980457;28;8876;-74
2022/10/10 01:58:39;;;;;;;;;9.75;9.75;25.20;99.90;;;;;;4984326;28;8844;-74
2022/10/10 02:01:31;;;;;;;;;13.00;12.25;25.20;99.90;;;;;;5004290;28;8821;-73
2022/10/10 02:04:47;;;;;;;;;10.00;10.00;25.20;99.90;;;;;;5000071;28;8898;-73
2022/10/10 02:07:53;;;;;;;;;11.00;11.00;25.30;99.90;;;;;;4982450;28;8845;-73
2022/10/10 02:10:31;;;;;;;;;12.00;12.00;25.20;99.90;;;;;;4965741;28;9515;-74
2022/10/10 02:13:07;;;;;;;;;13.00;13.00;25.10;99.90;;;;;;4998079;28;8808;-74
2022/10/10 02:15:47;;;;;;;;;12.50;12.50;25.10;99.90;;;;;;4994191;28;8859;-75
2022/10/10 02:18:28;;;;;;;;;12.00;12.00;25.10;99.90;;;;;;4961499;28;8824;-75
2022/10/10 02:21:03;;;;;;;;;12.25;11.00;25.10;99.90;;;;;;4978596;28;8838;-75
2022/10/10 02:23:48;;;;;;;;;11.25;11.25;25.10;99.90;;;;;;4982938;28;8805;-74
2022/10/10 02:26:27;;;;;;;;;11.00;11.00;25.10;99.90;;;;;;4947869;28;8871;-75
2022/10/10 02:29:20;;;;;;;;;12.50;11.75;25.10;99.90;;;;;;4960905;28;8855;-75
2022/10/10 02:32:23;;;;;;;;;12.50;12.00;25.00;99.90;;;;;;4966220;28;8851;-73
2022/10/10 02:34:57;;;;;;;;;11.00;11.00;25.00;99.90;;;;;;4964367;28;8891;-72
2022/10/10 02:37:31;;;;;;;;;12.25;12.25;24.90;99.90;;;;;;4987514;28;8852;-73
2022/10/10 02:40:11;;;;;;;;;12.25;12.25;24.80;99.90;;;;;;4969394;28;8839;-74
2022/10/10 02:42:44;;;;;;;;;8.75;8.75;24.90;99.90;;;;;;4965203;28;8824;-73
2022/10/10 02:45:20;;;;;;;;;10.75;10.75;24.90;99.90;;;;;;4976680;28;8889;-74
2022/10/10 02:47:52;;;;;;;;;11.00;11.00;24.80;99.90;;;;;;4977986;28;8862;-73
2022/10/10 02:50:31;;;;;;;;;13.00;13.00;24.70;99.90;;;;;;5009938;28;8814;-73
2022/10/10 02:53:07;;;;;;;;;12.75;12.75;24.80;99.90;;;;;;5024472;28;8860;-75
2022/10/10 02:55:46;;;;;;;;;12.00;12.00;24.70;99.90;;;;;;5003744;28;8862;-75
2022/10/10 02:58:26;;;;;;;;;11.75;10.00;24.70;99.90;;;;;;5023370;28;8869;-73
2022/10/10 03:01:12;;;;;;;;;11.00;11.00;24.70;99.90;;;;;;5008576;28;8818;-75
2022/10/10 03:03:44;;;;;;;;;13.00;13.00;24.70;99.90;;;;;;4998029;28;8852;-74
2022/10/10 03:06:16;;;;;;;;;11.33;11.33;24.70;99.90;;;;;;5010654;28;8861;-74
2022/10/10 03:08:49;;;;;;;;;10.25;10.25;24.60;99.90;;;;;;5002125;28;8850;-73
2022/10/10 03:11:23;;;;;;;;;11.25;11.25;24.50;99.90;;;;;;5006369;28;8794;-72
2022/10/10 03:13:59;;;;;;;;;11.00;11.00;24.50;99.90;;;;;;5016432;28;8878;-74
2022/10/10 03:16:40;;;;;;;;;14.00;13.25;24.50;99.90;;;;;;4986130;28;8848;-73
2022/10/10 03:19:13;;;;;;;;;13.25;13.25;24.50;99.90;;;;;;5003595;28;8834;-73
2022/10/10 03:22:26;;;;;;;;;12.75;12.75;24.50;99.90;;;;;;5004439;28;8827;-73
2022/10/10 03:24:57;;;;;;;;;10.50;10.50;24.60;99.90;;;;;;5016113;28;8818;-72
2022/10/10 03:27:31;;;;;;;;;11.75;11.50;24.60;99.90;;;;;;4969910;28;8850;-73
2022/10/10 03:30:15;;;;;;;;;11.00;11.00;24.50;99.90;;;;;;4993760;28;8839;-74
2022/10/10 03:32:49;;;;;;;;;9.25;9.25;24.50;99.90;;;;;;5016577;28;8902;-73
2022/10/10 03:35:31;;;;;;;;;13.00;13.00;24.50;99.90;;;;;;4999213;28;8814;-73
2022/10/10 03:38:09;;;;;;;;;13.00;13.00;24.50;99.90;;;;;;5002975;28;8839;-75
2022/10/10 03:40:48;;;;;;;;;11.25;11.25;24.50;99.90;;;;;;5019657;28;8877;-72
2022/10/10 03:43:18;;;;;;;;;11.00;11.00;24.50;99.90;;;;;;4984309;28;8824;-73
2022/10/10 03:45:53;;;;;;;;;11.25;11.25;24.50;99.90;;;;;;5006341;28;8846;-73
2022/10/10 03:48:26;;;;;;;;;12.50;12.50;24.50;99.90;;;;;;5002058;28;9656;-71
2022/10/10 03:51:02;;;;;;;;;11.50;11.50;24.40;99.90;;;;;;4984127;28;8863;-72
2022/10/10 03:53:33;;;;;;;;;11.75;11.75;24.40;99.90;;;;;;4978127;28;8837;-73
2022/10/10 03:56:18;;;;;;;;;13.00;13.00;24.40;99.90;;;;;;4994511;28;8848;-73
2022/10/10 03:58:51;;;;;;;;;11.25;11.25;24.30;99.90;;;;;;4983318;28;8886;-75
2022/10/10 04:01:25;;;;;;;;;12.00;12.00;24.40;99.90;;;;;;4991861;28;8832;-75
2022/10/10 04:03:57;;;;;;;;;13.00;13.00;24.30;99.90;;;;;;4984037;28;8850;-76
2022/10/10 04:06:35;;;;;;;;;11.50;11.50;24.30;99.90;;;;;;5013064;28;8899;-74
2022/10/10 04:09:23;;;;;;;;;12.00;11.00;24.30;99.90;;;;;;4981848;28;8846;-74
2022/10/10 04:11:54;;;;;;;;;11.00;11.00;24.20;99.90;;;;;;4965261;28;9551;-72
2022/10/10 04:14:27;;;;;;;;;12.50;12.50;24.20;99.90;;;;;;4979003;28;8818;-73
2022/10/10 04:17:16;;;;;;;;;11.00;11.00;24.20;99.90;;;;;;5002832;28;8845;-74
2022/10/10 04:19:53;;;;;;;;;12.00;12.00;24.10;99.90;;;;;;5012085;28;8844;-74
2022/10/10 04:22:34;;;;;;;;;11.25;11.25;24.10;99.90;;;;;;4974418;28;9649;-74
2022/10/10 04:25:11;;;;;;;;;12.25;11.75;24.10;99.90;;;;;;5003688;28;8835;-73
2022/10/10 04:27:44;;;;;;;;;9.50;9.50;24.00;99.90;;;;;;5008630;28;9580;-74
2022/10/10 04:30:20;;;;;;;;;12.00;12.00;23.90;99.90;;;;;;4982564;28;9682;-73
2022/10/10 04:32:58;;;;;;;;;13.25;13.25;23.90;99.90;;;;;;4983669;28;8838;-74
2022/10/10 04:35:33;;;;;;;;;13.25;13.25;23.90;99.90;;;;;;4996633;28;8830;-73
2022/10/10 04:38:47;;;;;;;;;13.25;13.25;23.90;99.90;;;;;;5006647;28;8840;-74
2022/10/10 04:41:18;;;;;;;;;12.25;11.75;23.80;99.90;;;;;;4973534;28;8833;-72
2022/10/10 04:43:52;;;;;;;;;11.00;11.00;23.80;99.90;;;;;;4977421;28;8920;-74
2022/10/10 04:46:30;;;;;;;;;14.50;14.50;23.80;99.90;;;;;;4959233;28;8838;-74
2022/10/10 04:49:04;;;;;;;;;9.75;9.75;23.90;99.90;;;;;;4954336;28;8879;-72
2022/10/10 04:51:46;;;;;;;;;11.25;11.25;23.80;99.90;;;;;;4972954;28;8856;-73
2022/10/10 04:54:27;;;;;;;;;11.00;11.00;23.80;99.90;;;;;;4969069;28;8869;-72
2022/10/10 04:57:00;;;;;;;;;12.00;12.00;23.80;99.90;;;;;;4978330;28;8844;-73
2022/10/10 04:59:38;;;;;;;;;11.00;11.00;23.80;99.90;;;;;;4977907;28;9610;-73
2022/10/10 05:02:09;;;;;;;;;12.00;12.00;23.70;99.90;;;;;;4982188;28;8828;-73
2022/10/10 05:04:40;;;;;;;;;11.50;11.50;23.70;99.90;;;;;;4965971;28;8836;-74
2022/10/10 05:07:17;;;;;;;;;11.00;11.00;23.70;99.90;;;;;;4997581;28;8847;-74
2022/10/10 05:09:50;;;;;;;;;11.00;11.00;23.70;99.90;;;;;;4982698;28;8873;-73
2022/10/10 05:12:27;;;;;;;;;13.00;13.00;23.70;99.90;;;;;;4999931;28;8824;-74
2022/10/10 05:14:59;;;;;;;;;12.50;12.50;23.60;99.90;;;;;;4967456;28;8883;-74
2022/10/10 05:17:39;;;;;;;;;13.25;12.50;23.60;99.90;;;;;;4970461;28;9512;-73
2022/10/10 05:20:14;;;;;;;;;11.25;11.25;23.70;99.90;;;;;;4985394;28;8873;-74
2022/10/10 05:22:47;;;;;;;;;12.00;12.00;23.60;99.90;;;;;;4992325;28;9598;-73
2022/10/10 05:25:21;;;;;;;;;11.75;11.75;23.70;99.90;;;;;;4993540;28;8824;-72
2022/10/10 05:27:53;;;;;;;;;10.00;10.00;23.70;99.90;;;;;;4973238;28;8832;-72
2022/10/10 05:30:29;;;;;;;;;11.00;11.00;23.60;99.90;;;;;;4970027;28;8856;-73
2022/10/10 05:32:59;;;;;;;;;10.00;10.00;23.50;99.90;;;;;;4982810;28;8835;-73
2022/10/10 05:35:33;;;;;;;;;12.25;12.25;23.60;99.90;;;;;;4966916;28;8871;-72
2022/10/10 05:38:11;;;;;;;;;11.25;11.25;23.50;99.90;;;;;;4965290;28;8904;-74
2022/10/10 05:40:44;;;;;;;;;13.25;13.25;23.50;99.90;;;;;;4996030;28;8834;-74
2022/10/10 05:43:23;;;;;;;;;9.00;9.00;23.50;99.90;;;;;;4948087;28;8854;-73
2022/10/10 05:45:56;;;;;;;;;15.25;15.25;23.50;99.90;;;;;;4979687;28;8851;-74
2022/10/10 05:48:34;;;;;;;;;10.50;10.50;23.50;99.90;;;;;;4986885;28;8845;-72
2022/10/10 05:51:12;;;;;;;;;11.75;11.75;23.40;99.90;;;;;;4973802;28;8859;-73
2022/10/10 05:53:49;;;;;;;;;11.50;11.50;23.40;99.90;;;;;;4971778;28;8858;-75
2022/10/10 05:56:41;;;;;;;;;8.50;8.50;23.40;99.90;;;;;;4983491;28;8849;-72
2022/10/10 05:59:17;;;;;;;;;13.50;12.00;23.40;99.90;;;;;;4972532;28;9628;-74
2022/10/10 06:01:54;;;;;;;;;12.25;12.25;23.30;99.90;;;;;;4988675;28;8814;-74
2022/10/10 06:04:25;;;;;;;;;10.50;10.50;23.30;99.90;;;;;;5016658;28;8865;-74
2022/10/10 06:06:58;;;;;;;;;12.50;11.50;23.20;99.90;;;;;;5003471;28;8853;-74
2022/10/10 06:09:30;;;;;;;;;11.50;11.50;23.30;99.90;;;;;;4969902;28;9624;-73
2022/10/10 06:12:06;;;;;;;;;11.25;11.25;23.30;99.90;;;;;;4991585;28;8837;-72
2022/10/10 06:14:40;;;;;;;;;11.25;11.25;23.20;99.90;;;;;;5011538;28;8865;-74
2022/10/10 06:17:12;;;;;;;;;12.00;12.00;23.10;99.90;;;;;;4996117;28;8818;-74
2022/10/10 06:19:47;;;;;;;;;14.50;13.00;23.20;99.90;;;;;;5011416;28;8874;-72
2022/10/10 06:22:22;;;;;;;;;11.25;11.25;23.10;99.90;;;;;;4993567;28;8860;-74
2022/10/10 06:24:56;;;;;;;;;12.00;12.00;23.10;99.90;;;;;;4994653;28;8818;-73
2022/10/10 06:27:26;;;;;;;;;13.00;13.00;23.20;99.90;;;;;;5011551;28;8813;-71
2022/10/10 06:29:58;;;;;;;;;9.25;9.25;23.10;99.90;;;;;;4998015;28;8806;-72
2022/10/10 06:32:30;;;;;;;;;13.75;13.75;23.10;99.90;;;;;;4999501;28;8854;-73
2022/10/10 06:35:09;;;;;;;;;13.75;13.75;23.10;99.90;;;;;;4983317;28;8866;-73
2022/10/10 06:37:40;;;;;;;;;11.75;11.50;23.00;99.90;;;;;;4982178;28;8930;-74
2022/10/10 06:40:12;;;;;;;;;11.00;11.00;23.00;99.90;;;;;;4985657;28;9639;-75
2022/10/10 06:42:44;;;;;;;;;12.00;12.00;23.10;99.90;;;;;;4994690;28;9716;-74
2022/10/10 06:45:18;;;;;;;;;11.75;11.75;23.00;99.90;;;;;;4996301;28;9232;-74
2022/10/10 06:47:50;;;;;;;;;11.75;11.75;22.90;99.90;;;;;;4995873;28;8880;-74
2022/10/10 06:50:26;;;;;;;;;9.75;9.75;22.90;99.90;;;;;;5001029;28;8882;-75
2022/10/10 06:52:56;;;;;;;;;11.50;11.50;22.90;99.90;;;;;;4982176;28;8880;-74
2022/10/10 06:55:30;;;;;;;;;13.25;13.25;23.00;99.90;;;;;;4965946;28;8856;-75
2022/10/10 06:58:07;;;;;;;;;10.25;10.25;22.90;99.90;;;;;;4985512;28;8866;-73
2022/10/10 07:01:13;;;;;;;;;10.25;10.25;22.90;99.90;;;;;;4996619;28;8872;-76
2022/10/10 07:03:48;;;;;;;;;10.75;10.75;22.90;99.90;;;;;;4966917;28;8925;-75
2022/10/10 07:06:20;;;;;;;;;12.75;12.75;22.90;99.90;;;;;;4972996;28;8834;-74
2022/10/10 07:08:54;;;;;;;;;11.75;11.75;22.80;99.90;;;;;;4988978;28;8901;-74
2022/10/10 07:11:29;;;;;;;;;11.00;11.00;22.80;99.90;;;;;;4985266;28;8999;-72
2022/10/10 07:14:07;;;;;;;;;13.00;13.00;22.80;99.90;;;;;;5016471;28;8907;-74
2022/10/10 07:16:39;;;;;;;;;11.75;11.75;22.90;99.90;;;;;;5004926;28;8845;-74
2022/10/10 07:19:23;;;;;;;;;12.50;12.50;22.80;99.90;;;;;;4986747;28;8841;-73
2022/10/10 07:21:56;;;;;;;;;12.25;12.25;22.80;99.90;;;;;;5002106;28;8857;-73
2022/10/10 07:24:38;;;;;;;;;12.50;12.50;22.70;99.90;;;;;;5014600;28;8890;-74
2022/10/10 07:27:11;;;;;;;;;11.25;11.25;22.60;99.90;;;;;;5002983;28;8857;-76
2022/10/10 07:29:56;;;;;;;;;13.00;13.00;22.60;99.90;;;;;;5014037;28;8855;-74
2022/10/10 07:32:27;;;;;;;;;14.00;12.50;22.60;99.90;;;;;;5004173;28;9834;-76
2022/10/10 07:34:59;;;;;;;;;11.25;11.25;22.60;99.90;;;;;;4971940;28;8833;-73
2022/10/10 07:37:34;;;;;;;;;11.00;11.00;22.60;99.90;;;;;;4995371;28;8867;-73
2022/10/10 07:40:13;;;;;;;;;11.00;11.00;22.50;99.90;;;;;;4998354;28;8842;-74
2022/10/10 07:42:48;;;;;;;;;8.00;8.00;22.40;99.90;;;;;;5008857;28;8863;-72
2022/10/10 07:45:31;;;;;;;;;13.00;13.00;22.40;99.90;;;;;;5005635;28;8871;-72
2022/10/10 07:48:10;;;;;;;;;8.25;8.25;22.40;99.90;;;;;;5000217;28;8873;-73
2022/10/10 07:50:45;;;;;;;;;13.00;13.00;22.30;99.90;;;;;;4987573;28;8834;-73
2022/10/10 07:53:15;;;;;;;;;14.25;14.25;22.30;99.90;;;;;;4979523;28;8911;-74
2022/10/10 07:55:53;;;;;;;;;12.25;12.25;22.20;99.90;;;;;;5002165;28;8854;-74
2022/10/10 07:58:26;;;;;;;;;10.25;10.25;22.20;99.90;;;;;;4968824;28;8841;-74
2022/10/10 08:01:10;;;;;;;;;9.00;9.00;22.20;99.90;;;;;;4988679;28;8928;-73
2022/10/10 08:03:42;;;;;;;;;11.00;11.00;22.10;99.90;;;;;;4982518;28;8828;-73
2022/10/10 08:06:17;;;;;;;;;11.00;11.00;22.00;99.90;;;;;;4986133;28;8865;-74
2022/10/10 08:08:49;;;;;;;;;13.00;13.00;22.10;99.90;;;;;;5014553;28;8836;-75
2022/10/10 08:11:28;;;;;;;;;11.00;11.00;21.90;99.90;;;;;;4991762;28;9581;-74
2022/10/10 08:14:11;;;;;;;;;12.00;11.00;21.90;99.90;;;;;;4990158;28;8906;-73
2022/10/10 08:16:50;;;;;;;;;10.50;10.50;21.70;99.90;;;;;;5012879;28;8830;-73
2022/10/10 08:19:19;;;;;;;;;9.50;9.50;21.60;99.90;;;;;;4976058;28;8836;-74
2022/10/10 08:21:53;;;;;;;;;11.50;11.50;21.50;99.90;;;;;;5004253;28;8920;-73
2022/10/10 08:24:25;;;;;;;;;12.50;11.25;21.50;99.90;;;;;;4970046;28;8868;-73
2022/10/10 08:27:03;;;;;;;;;13.25;13.25;21.50;99.90;;;;;;5014357;28;8853;-74
2022/10/10 08:29:45;;;;;;;;;13.00;13.00;21.40;99.90;;;;;;4966393;28;9812;-75
2022/10/10 08:32:43;;;;;;;;;15.00;15.00;21.30;99.90;;;;;;5011957;28;8849;-75
2022/10/10 08:35:14;;;;;;;;;12.25;12.25;21.30;99.90;;;;;;5000301;28;8868;-74
2022/10/10 08:37:46;;;;;;;;;11.25;11.25;21.40;99.90;;;;;;4996181;28;8822;-74
2022/10/10 08:40:22;;;;;;;;;10.75;10.75;21.40;99.90;;;;;;5001433;28;8983;-74
2022/10/10 08:43:01;;;;;;;;;13.50;12.50;21.30;99.90;;;;;;4987056;28;8854;-75
2022/10/10 08:45:38;;;;;;;;;12.00;12.00;21.30;99.90;;;;;;4992356;28;8854;-74
2022/10/10 08:48:21;;;;;;;;;11.75;11.75;21.10;99.90;;;;;;5006500;28;8891;-73
2022/10/10 08:51:00;;;;;;;;;12.50;12.50;21.10;99.90;;;;;;5016653;28;8862;-74
2022/10/10 08:53:44;;;;;;;;;13.25;13.25;21.10;99.90;;;;;;4999778;28;8823;-71
2022/10/10 08:56:24;;;;;;;;;12.25;12.25;21.10;99.90;;;;;;4988754;28;9576;-73
2022/10/10 08:59:25;;;;;;;;;12.50;12.50;21.00;99.90;;;;;;5009787;28;8808;-75
2022/10/10 09:02:23;;;;;;;;;11.50;11.50;21.00;99.90;;;;;;4992407;28;8844;-76
2022/10/10 09:05:40;;;;;;;;;11.25;11.25;21.00;99.90;;;;;;5000330;28;8860;-72
2022/10/10 09:08:32;;;;;;;;;12.00;12.00;21.00;99.90;;;;;;4998440;28;8867;-74
2022/10/10 09:11:59;;;;;;;;;10.25;10.25;21.10;99.90;;;;;;4989291;28;8913;-74
2022/10/10 09:14:56;;;;;;;;;13.50;13.50;21.00;99.90;;;;;;5002359;28;8838;-76
2022/10/10 09:17:58;;;;;;;;;10.75;10.75;21.00;99.90;;;;;;4971741;28;8902;-73
2022/10/10 09:20:53;;;;;;;;;10.00;10.00;20.90;99.90;;;;;;4992859;28;8871;-73
2022/10/10 09:23:36;;;;;;;;;12.00;12.00;20.90;99.90;;;;;;4999090;28;8805;-74
2022/10/10 09:26:15;;;;;;;;;10.25;10.25;20.80;99.90;;;;;;4998210;28;8891;-74
2022/10/10 09:29:02;;;;;;;;;13.50;12.25;20.70;99.90;;;;;;4986110;28;8840;-72
2022/10/10 09:32:19;;;;;;;;;13.00;13.00;20.70;99.90;;;;;;4999079;28;8886;-73
2022/10/10 09:35:20;;;;;;;;;12.75;12.75;20.60;99.90;;;;;;4978882;28;8830;-74
2022/10/10 09:38:57;;;;;;;;;12.75;12.75;20.70;99.90;;;;;;4984963;28;8831;-72
2022/10/10 09:42:01;;;;;;;;;10.00;10.00;20.60;99.90;;;;;;4987330;28;8852;-73
2022/10/10 09:44:51;;;;;;;;;12.50;12.50;20.50;99.90;;;;;;4984228;28;8836;-73
2022/10/10 09:47:24;;;;;;;;;12.00;12.00;20.60;99.90;;;;;;5007593;28;8847;-74
2022/10/10 09:49:59;;;;;;;;;14.50;14.50;20.70;99.90;;;;;;5002234;28;8835;-72
2022/10/10 09:52:42;;;;;;;;;10.75;10.75;20.70;99.90;;;;;;4990225;28;8844;-73
2022/10/10 09:55:40;;;;;;;;;11.00;11.00;20.70;99.90;;;;;;4957214;28;8846;-72
2022/10/10 09:58:22;;;;;;;;;14.25;13.25;20.80;99.90;;;;;;5009391;28;8909;-77
2022/10/10 10:01:25;;;;;;;;;11.25;11.25;20.80;99.90;;;;;;4996721;28;9843;-74
2022/10/10 10:04:21;;;;;;;;;12.50;12.50;20.80;99.90;;;;;;5001699;28;8858;-75
2022/10/10 10:07:35;;;;;;;;;12.00;12.00;20.80;99.90;;;;;;4998250;28;8872;-74
2022/10/10 10:10:23;;;;;;;;;12.50;12.50;20.70;99.90;;;;;;5000000;28;8847;-73
2022/10/10 10:12:57;;;;;;;;;10.75;10.75;20.70;99.90;;;;;;4986782;28;8813;-73
2022/10/10 10:15:31;;;;;;;;;12.75;12.75;20.70;99.90;;;;;;4982358;28;9015;-75
2022/10/10 10:18:29;;;;;;;;;11.00;11.00;20.50;99.90;;;;;;5004426;28;8802;-72
2022/10/10 10:21:22;;;;;;;;;14.25;14.25;20.40;99.90;;;;;;4994354;28;8812;-72
2022/10/10 10:24:35;;;;;;;;;15.00;15.00;20.40;99.90;;;;;;5005463;28;9028;-72
2022/10/10 10:27:28;;;;;;;;;7.50;7.50;20.30;99.90;;;;;;4984744;28;8844;-73
2022/10/10 10:30:28;;;;;;;;;12.00;12.00;20.20;99.90;;;;;;5017696;28;8835;-73
2022/10/10 10:33:45;;;;;;;;;12.50;12.50;20.20;99.90;;;;;;5000364;28;8897;-73
2022/10/10 10:36:34;;;;;;;;;11.50;11.50;20.20;99.90;;;;;;5008949;28;8854;-72
2022/10/10 10:39:39;;;;;;;;;11.00;11.00;20.40;99.90;;;;;;5003992;28;8882;-72
2022/10/10 10:42:42;;;;;;;;;12.75;12.75;20.50;99.90;;;;;;5001613;28;9154;-72
2022/10/10 10:45:25;;;;;;;;;12.25;11.50;20.50;99.90;;;;;;5031864;28;8850;-72
2022/10/10 10:48:21;;;;;;;;;11.25;11.25;20.50;99.90;;;;;;5006429;28;8831;-73
2022/10/10 10:51:25;;;;;;;;;15.00;15.00;20.60;99.90;;;;;;4993937;28;8893;-73
2022/10/10 10:54:36;;;;;;;;;13.75;13.75;20.60;99.90;;;;;;5030371;28;8918;-74
2022/10/10 10:57:41;;;;;;;;;13.25;13.25;20.60;99.90;;;;;;5019211;28;8814;-75
2022/10/10 11:00:45;;;;;;;;;13.00;13.00;20.70;99.90;;;;;;5014460;28;8875;-75
2022/10/10 11:03:49;;;;;;;;;13.50;13.50;20.50;99.90;;;;;;5005102;28;8863;-75
2022/10/10 11:07:08;;;;;;;;;11.00;11.00;20.40;99.90;;;;;;5017802;28;9545;-74
2022/10/10 11:10:17;;;;;;;;;12.50;12.50;20.40;99.90;;;;;;5023842;28;8832;-74
2022/10/10 11:13:13;;;;;;;;;12.00;12.00;20.30;99.90;;;;;;5023595;28;8810;-74
2022/10/10 11:19:33;;;;;;;;;13.00;13.00;20.10;99.90;;;;;;5006635;28;8935;-75
2022/10/10 11:22:12;;;;;;;;;14.50;12.50;20.10;99.90;;;;;;5019669;28;9049;-75
2022/10/10 11:24:59;;;;;;;;;11.33;11.33;20.10;99.90;;;;;;4987272;28;8839;-71
2022/10/10 11:28:07;;;;;;;;;12.33;12.33;20.20;99.90;;;;;;5022319;28;9040;-75
2022/10/10 11:30:53;;;;;;;;;9.33;9.33;20.30;99.90;;;;;;5000424;28;9647;-75
2022/10/10 11:33:37;;;;;;;;;12.50;12.00;20.40;99.90;;;;;;4997900;28;9826;-74
2022/10/10 11:36:30;;;;;;;;;12.67;12.67;20.40;99.90;;;;;;5011524;28;8866;-71
2022/10/10 11:39:43;;;;;;;;;13.33;13.33;20.30;99.90;;;;;;5019027;28;9881;-74
2022/10/10 11:42:35;;;;;;;;;12.00;12.00;20.40;99.90;;;;;;5022029;28;9072;-75
2022/10/10 11:45:27;;;;;;;;;13.75;13.75;20.30;99.90;;;;;;5011108;28;8952;-75
2022/10/10 11:48:30;;;;;;;;;13.33;13.33;20.10;99.90;;;;;;5031766;28;8867;-75
2022/10/10 11:51:29;;;;;;;;;10.00;10.00;20.10;99.90;;;;;;4986210;28;8911;-75
2022/10/10 11:54:50;;;;;;;;;16.00;16.00;20.10;99.90;;;;;;5020850;28;9099;-75
2022/10/10 11:57:38;;;;;;;;;8.25;8.25;19.90;99.90;;;;;;4974709;28;9753;-75
2022/10/10 12:00:17;;;;;;;;;11.00;11.00;19.90;99.90;;;;;;5006785;28;8782;-74
2022/10/10 12:02:51;;;;;;;;;15.00;15.00;19.90;99.90;;;;;;4992816;28;9159;-73
2022/10/10 12:05:37;;;;;;;;;11.00;11.00;19.80;99.90;;;;;;5005124;28;9079;-74
2022/10/10 12:08:26;;;;;;;;;12.00;12.00;19.70;99.90;;;;;;5020059;28;8942;-73
2022/10/10 12:11:18;;;;;;;;;11.00;11.00;19.60;99.90;;;;;;5000886;28;9019;-73
2022/10/10 12:13:57;;;;;;;;;12.33;12.33;19.60;99.90;;;;;;5018323;28;8991;-74
2022/10/10 12:16:40;;;;;;;;;14.33;14.33;19.70;99.90;;;;;;5010793;28;8927;-75
2022/10/10 12:19:25;;;;;;;;;12.00;12.00;19.60;99.90;;;;;;5015164;28;9431;-74
2022/10/10 12:22:10;;;;;;;;;13.33;11.67;19.50;99.90;;;;;;5005438;28;9050;-72
2022/10/10 12:25:28;;;;;;;;;13.67;13.67;19.60;99.90;;;;;;4992908;28;9335;-75
2022/10/10 12:28:13;;;;;;;;;13.67;13.67;19.50;99.90;;;;;;4979230;28;9774;-74
2022/10/10 12:31:12;;;;;;;;;10.33;10.33;19.50;99.90;;;;;;4998578;28;9122;-73
2022/10/10 12:34:19;;;;;;;;;11.33;11.33;19.50;99.90;;;;;;5007029;28;9193;-76
2022/10/10 12:37:09;;;;;;;;;10.67;9.67;19.60;99.90;;;;;;5001456;28;9690;-74
2022/10/10 12:40:10;;;;;;;;;12.67;12.67;19.60;99.90;;;;;;4984399;28;8939;-74
2022/10/10 12:42:49;;;;;;;;;11.00;11.00;19.50;99.90;;;;;;5017181;28;9156;-73
2022/10/10 12:45:38;;;;;;;;;12.00;11.33;19.50;99.90;;;;;;5000960;28;9050;-73
2022/10/10 12:48:24;;;;;;;;;12.00;12.00;19.60;99.90;;;;;;5030345;28;9098;-72
2022/10/10 12:51:02;;;;;;;;;14.33;14.33;19.60;99.90;;;;;;4985733;28;9027;-73
2022/10/10 12:53:39;;;;;;;;;11.00;11.00;19.80;99.90;;;;;;5006519;28;9090;-72
2022/10/10 12:56:12;;;;;;;;;13.00;13.00;19.70;99.90;;;;;;4987865;28;8928;-73
2022/10/10 12:58:49;;;;;;;;;12.00;12.00;19.70;99.90;;;;;;5001898;28;8983;-73
2022/10/10 13:01:53;;;;;;;;;12.00;12.00;19.80;99.90;;;;;;5018200;28;9013;-74
2022/10/10 13:04:27;;;;;;;;;15.33;13.33;19.80;99.90;;;;;;5026140;28;9162;-75
2022/10/10 13:07:05;;;;;;;;;13.33;13.33;19.80;99.90;;;;;;5016313;28;9173;-73
2022/10/10 13:09:39;;;;;;;;;10.00;8.33;19.80;99.90;;;;;;5013025;28;9144;-74
2022/10/10 13:12:30;;;;;;;;;12.00;12.00;19.90;99.90;;;;;;5008541;28;9209;-73
2022/10/10 13:15:25;;;;;;;;;12.67;12.67;19.90;99.90;;;;;;4983962;28;9077;-75
2022/10/10 13:17:56;;;;;;;;;12.67;12.67;20.00;99.90;;;;;;4998817;28;9064;-74
2022/10/10 13:20:40;;;;;;;;;10.33;10.33;20.00;99.90;;;;;;5017052;28;9017;-74
2022/10/10 13:23:16;;;;;;;;;13.33;13.33;20.00;99.90;;;;;;4983144;28;8923;-73
2022/10/10 13:25:54;;;;;;;;;11.75;11.75;20.10;99.90;;;;;;5015087;28;10283;-73
2022/10/10 13:28:32;;;;;;;;;12.50;12.50;20.20;99.90;;;;;;5000767;28;8868;-73
2022/10/10 13:31:18;;;;;;;;;14.33;14.33;20.20;99.90;;;;;;5016267;28;8842;-74
2022/10/10 13:37:33;;;;;;;;;12.00;12.00;20.30;99.90;;;;;;5003422;28;8952;-75
2022/10/10 13:40:23;;;;;;;;;9.00;9.00;20.40;99.90;;;;;;4983648;28;8845;-75
2022/10/10 13:43:11;;;;;;;;;12.75;12.00;20.50;99.90;;;;;;5016261;28;9214;-73
2022/10/10 13:46:02;;;;;;;;;13.50;11.25;20.60;99.90;;;;;;5001394;28;11000;-72
2022/10/10 13:48:37;;;;;;;;;13.00;13.00;20.60;99.90;;;;;;5021959;28;8862;-74
2022/10/10 13:51:18;;;;;;;;;10.75;10.75;20.70;99.90;;;;;;4981759;28;9174;-73
2022/10/10 13:54:08;;;;;;;;;12.50;12.50;20.70;99.90;;;;;;5026413;28;8834;-72
2022/10/10 13:56:40;;;;;;;;;8.00;8.00;20.90;99.90;;;;;;4997746;28;8884;-73
2022/10/10 13:59:18;;;;;;;;;13.00;13.00;21.00;99.90;;;;;;4987464;28;8952;-72
2022/10/10 14:02:03;;;;;;;;;12.00;12.00;21.00;99.90;;;;;;5014651;28;9001;-72
2022/10/10 14:04:50;;;;;;;;;12.33;12.33;21.10;99.90;;;;;;5012057;28;8913;-72
2022/10/10 14:07:26;;;;;;;;;12.67;12.67;21.10;99.90;;;;;;4992087;28;8995;-72
2022/10/10 14:10:09;;;;;;;;;12.50;12.50;21.20;99.90;;;;;;5009108;28;8958;-73
2022/10/10 14:12:55;;;;;;;;;12.33;12.33;21.40;99.90;;;;;;5001482;28;8853;-73
2022/10/10 14:15:45;;;;;;;;;14.00;10.75;21.30;99.90;;;;;;4993205;28;9045;-71